sensor_id;sensor_type;location;lat;lon;timestamp;P1;durP1;ratioP1;P2;durP2;ratioP2
43560;SDS011;32305;46.410;17.394;2022-10-30T00:00:39;7.40;;;6.68;;
43560;SDS011;32305;46.410;17.394;2022-10-30T00:03:13;7.80;;;6.20;;
43560;SDS011;32305;46.410;17.394;2022-10-30T00:05:42;7.05;;;6.10;;
43560;SDS011;32305;46.410;17.394;2022-10-30T00:08:11;7.90;;;6.50;;
43560;SDS011;32305;46.410;17.394;2022-10-30T00:10:40;6.95;;;6.25;;
43560;SDS011;32305;46.410;17.394;2022-10-30T00:13:07;7.13;;;6.20;;
43560;SDS011;32305;46.410;17.394;2022-10-30T00:15:35;7.47;;;6.25;;
43560;SDS011;32305;46.410;17.394;2022-10-30T00:18:03;7.05;;;6.18;;
43560;SDS011;32305;46.410;17.394;2022-10-30T00:20:30;7.43;;;6.63;;
43560;SDS011;32305;46.410;17.394;2022-10-30T00:22:57;8.20;;;6.93;;
43560;SDS011;32305;46.410;17.394;2022-10-30T00:25:25;7.57;;;6.50;;
43560;SDS011;32305;46.410;17.394;2022-10-30T00:27:52;7.53;;;6.43;;
43560;SDS011;32305;46.410;17.394;2022-10-30T00:30:19;7.65;;;6.63;;
43560;SDS011;32305;46.410;17.394;2022-10-30T00:32:46;7.13;;;6.25;;
43560;SDS011;32305;46.410;17.394;2022-10-30T00:35:13;6.68;;;5.80;;
43560;SDS011;32305;46.410;17.394;2022-10-30T00:37:40;7.30;;;6.43;;
43560;SDS011;32305;46.410;17.394;2022-10-30T00:40:10;6.68;;;5.97;;
43560;SDS011;32305;46.410;17.394;2022-10-30T00:42:44;7.57;;;6.43;;
43560;SDS011;32305;46.410;17.394;2022-10-30T00:45:12;6.88;;;5.82;;
43560;SDS011;32305;46.410;17.394;2022-10-30T00:47:42;7.43;;;6.30;;
43560;SDS011;32305;46.410;17.394;2022-10-30T00:50:13;7.20;;;6.50;;
43560;SDS011;32305;46.410;17.394;2022-10-30T00:53:01;6.38;;;5.65;;
43560;SDS011;32305;46.410;17.394;2022-10-30T00:55:36;7.15;;;6.15;;
43560;SDS011;32305;46.410;17.394;2022-10-30T00:58:10;7.18;;;5.90;;
43560;SDS011;32305;46.410;17.394;2022-10-30T01:00:41;6.20;;;5.60;;
43560;SDS011;32305;46.410;17.394;2022-10-30T01:03:11;8.10;;;6.35;;
43560;SDS011;32305;46.410;17.394;2022-10-30T01:05:40;6.53;;;5.85;;
43560;SDS011;32305;46.410;17.394;2022-10-30T01:08:11;6.65;;;5.95;;
43560;SDS011;32305;46.410;17.394;2022-10-30T01:10:38;6.47;;;5.82;;
43560;SDS011;32305;46.410;17.394;2022-10-30T01:13:05;9.15;;;6.20;;
43560;SDS011;32305;46.410;17.394;2022-10-30T01:15:34;7.95;;;6.95;;
43560;SDS011;32305;46.410;17.394;2022-10-30T01:18:19;7.28;;;6.22;;
43560;SDS011;32305;46.410;17.394;2022-10-30T01:24:30;7.45;;;6.57;;
43560;SDS011;32305;46.410;17.394;2022-10-30T01:27:26;7.20;;;6.10;;
43560;SDS011;32305;46.410;17.394;2022-10-30T01:30:02;7.35;;;6.43;;
43560;SDS011;32305;46.410;17.394;2022-10-30T01:35:57;6.63;;;5.93;;
43560;SDS011;32305;46.410;17.394;2022-10-30T01:38:41;6.30;;;5.70;;
43560;SDS011;32305;46.410;17.394;2022-10-30T01:41:14;7.10;;;6.05;;
43560;SDS011;32305;46.410;17.394;2022-10-30T01:43:41;7.40;;;6.18;;
43560;SDS011;32305;46.410;17.394;2022-10-30T01:46:21;7.30;;;6.10;;
43560;SDS011;32305;46.410;17.394;2022-10-30T01:52:16;6.00;;;5.38;;
43560;SDS011;32305;46.410;17.394;2022-10-30T01:55:12;6.72;;;5.95;;
43560;SDS011;32305;46.410;17.394;2022-10-30T01:58:01;7.13;;;6.28;;
43560;SDS011;32305;46.410;17.394;2022-10-30T02:00:47;7.18;;;5.72;;
43560;SDS011;32305;46.410;17.394;2022-10-30T02:03:24;7.55;;;6.40;;
43560;SDS011;32305;46.410;17.394;2022-10-30T02:05:53;6.53;;;5.70;;
43560;SDS011;32305;46.410;17.394;2022-10-30T02:08:20;6.13;;;5.53;;
43560;SDS011;32305;46.410;17.394;2022-10-30T02:10:48;7.05;;;6.20;;
43560;SDS011;32305;46.410;17.394;2022-10-30T02:13:17;7.32;;;6.45;;
43560;SDS011;32305;46.410;17.394;2022-10-30T02:15:45;7.03;;;5.90;;
43560;SDS011;32305;46.410;17.394;2022-10-30T02:18:13;7.93;;;6.68;;
43560;SDS011;32305;46.410;17.394;2022-10-30T02:20:40;6.55;;;5.78;;
43560;SDS011;32305;46.410;17.394;2022-10-30T02:23:07;6.85;;;6.15;;
43560;SDS011;32305;46.410;17.394;2022-10-30T02:25:38;7.03;;;6.32;;
43560;SDS011;32305;46.410;17.394;2022-10-30T02:28:05;6.45;;;5.82;;
43560;SDS011;32305;46.410;17.394;2022-10-30T02:30:32;6.32;;;5.50;;
43560;SDS011;32305;46.410;17.394;2022-10-30T02:32:59;6.78;;;6.03;;
43560;SDS011;32305;46.410;17.394;2022-10-30T02:35:28;7.10;;;6.13;;
43560;SDS011;32305;46.410;17.394;2022-10-30T02:37:55;6.07;;;5.32;;
43560;SDS011;32305;46.410;17.394;2022-10-30T02:40:23;5.65;;;5.05;;
43560;SDS011;32305;46.410;17.394;2022-10-30T02:42:51;6.97;;;6.28;;
43560;SDS011;32305;46.410;17.394;2022-10-30T02:45:19;5.97;;;5.38;;
43560;SDS011;32305;46.410;17.394;2022-10-30T02:47:46;6.90;;;6.20;;
43560;SDS011;32305;46.410;17.394;2022-10-30T02:50:14;6.80;;;6.10;;
43560;SDS011;32305;46.410;17.394;2022-10-30T02:52:41;7.30;;;6.45;;
43560;SDS011;32305;46.410;17.394;2022-10-30T02:55:08;6.32;;;5.72;;
43560;SDS011;32305;46.410;17.394;2022-10-30T02:57:35;5.60;;;5.10;;
43560;SDS011;32305;46.410;17.394;2022-10-30T03:00:02;8.23;;;6.60;;
43560;SDS011;32305;46.410;17.394;2022-10-30T03:02:30;6.43;;;5.82;;
43560;SDS011;32305;46.410;17.394;2022-10-30T03:04:57;6.78;;;5.88;;
43560;SDS011;32305;46.410;17.394;2022-10-30T03:07:24;6.68;;;5.97;;
43560;SDS011;32305;46.410;17.394;2022-10-30T03:09:51;7.13;;;6.38;;
43560;SDS011;32305;46.410;17.394;2022-10-30T03:12:20;6.10;;;5.50;;
43560;SDS011;32305;46.410;17.394;2022-10-30T03:14:47;6.75;;;5.75;;
43560;SDS011;32305;46.410;17.394;2022-10-30T03:17:14;6.57;;;5.80;;
43560;SDS011;32305;46.410;17.394;2022-10-30T03:19:41;6.43;;;5.80;;
43560;SDS011;32305;46.410;17.394;2022-10-30T03:22:08;6.15;;;5.55;;
43560;SDS011;32305;46.410;17.394;2022-10-30T03:24:35;6.85;;;5.97;;
43560;SDS011;32305;46.410;17.394;2022-10-30T03:27:03;7.05;;;6.18;;
43560;SDS011;32305;46.410;17.394;2022-10-30T03:29:30;6.57;;;5.93;;
43560;SDS011;32305;46.410;17.394;2022-10-30T03:31:57;5.75;;;5.15;;
43560;SDS011;32305;46.410;17.394;2022-10-30T03:34:25;6.10;;;5.38;;
43560;SDS011;32305;46.410;17.394;2022-10-30T03:36:53;6.38;;;5.47;;
43560;SDS011;32305;46.410;17.394;2022-10-30T03:39:20;7.38;;;6.03;;
43560;SDS011;32305;46.410;17.394;2022-10-30T03:41:47;6.45;;;5.85;;
43560;SDS011;32305;46.410;17.394;2022-10-30T03:44:14;6.30;;;5.63;;
43560;SDS011;32305;46.410;17.394;2022-10-30T03:46:41;6.25;;;5.53;;
43560;SDS011;32305;46.410;17.394;2022-10-30T03:49:08;6.47;;;5.82;;
43560;SDS011;32305;46.410;17.394;2022-10-30T03:51:35;6.38;;;5.55;;
43560;SDS011;32305;46.410;17.394;2022-10-30T03:54:02;5.40;;;4.88;;
43560;SDS011;32305;46.410;17.394;2022-10-30T03:56:29;6.80;;;5.85;;
43560;SDS011;32305;46.410;17.394;2022-10-30T03:58:56;5.30;;;4.80;;
43560;SDS011;32305;46.410;17.394;2022-10-30T04:01:23;5.93;;;5.35;;
43560;SDS011;32305;46.410;17.394;2022-10-30T04:03:50;7.18;;;5.80;;
43560;SDS011;32305;46.410;17.394;2022-10-30T04:06:17;5.85;;;5.25;;
43560;SDS011;32305;46.410;17.394;2022-10-30T04:08:44;6.10;;;5.50;;
43560;SDS011;32305;46.410;17.394;2022-10-30T04:11:12;6.57;;;5.72;;
43560;SDS011;32305;46.410;17.394;2022-10-30T04:13:39;6.45;;;5.68;;
43560;SDS011;32305;46.410;17.394;2022-10-30T04:16:06;6.30;;;5.65;;
43560;SDS011;32305;46.410;17.394;2022-10-30T04:18:33;6.28;;;5.68;;
43560;SDS011;32305;46.410;17.394;2022-10-30T04:21:00;5.85;;;5.25;;
43560;SDS011;32305;46.410;17.394;2022-10-30T04:23:27;5.85;;;4.95;;
43560;SDS011;32305;46.410;17.394;2022-10-30T04:25:54;5.88;;;5.28;;
43560;SDS011;32305;46.410;17.394;2022-10-30T04:28:22;5.90;;;5.25;;
43560;SDS011;32305;46.410;17.394;2022-10-30T04:30:49;5.97;;;5.38;;
43560;SDS011;32305;46.410;17.394;2022-10-30T04:33:16;5.28;;;4.60;;
43560;SDS011;32305;46.410;17.394;2022-10-30T04:35:43;6.13;;;5.53;;
43560;SDS011;32305;46.410;17.394;2022-10-30T04:38:11;6.25;;;5.53;;
43560;SDS011;32305;46.410;17.394;2022-10-30T04:40:40;6.33;;;5.47;;
43560;SDS011;32305;46.410;17.394;2022-10-30T04:43:08;6.50;;;5.18;;
43560;SDS011;32305;46.410;17.394;2022-10-30T04:45:37;5.35;;;4.78;;
43560;SDS011;32305;46.410;17.394;2022-10-30T04:48:05;6.38;;;5.75;;
43560;SDS011;32305;46.410;17.394;2022-10-30T04:50:35;5.28;;;4.78;;
43560;SDS011;32305;46.410;17.394;2022-10-30T04:53:05;6.05;;;5.45;;
43560;SDS011;32305;46.410;17.394;2022-10-30T04:55:35;5.95;;;5.35;;
43560;SDS011;32305;46.410;17.394;2022-10-30T04:58:02;6.03;;;5.43;;
43560;SDS011;32305;46.410;17.394;2022-10-30T05:00:30;6.57;;;5.82;;
43560;SDS011;32305;46.410;17.394;2022-10-30T05:02:58;5.90;;;5.30;;
43560;SDS011;32305;46.410;17.394;2022-10-30T05:05:29;5.50;;;5.00;;
43560;SDS011;32305;46.410;17.394;2022-10-30T05:07:57;5.53;;;4.97;;
43560;SDS011;32305;46.410;17.394;2022-10-30T05:10:25;4.57;;;4.18;;
43560;SDS011;32305;46.410;17.394;2022-10-30T05:12:52;6.03;;;5.43;;
43560;SDS011;32305;46.410;17.394;2022-10-30T05:15:19;5.25;;;4.75;;
43560;SDS011;32305;46.410;17.394;2022-10-30T05:17:50;5.60;;;5.10;;
43560;SDS011;32305;46.410;17.394;2022-10-30T05:20:21;5.57;;;4.75;;
43560;SDS011;32305;46.410;17.394;2022-10-30T05:22:52;5.35;;;4.85;;
43560;SDS011;32305;46.410;17.394;2022-10-30T05:25:21;5.72;;;4.97;;
43560;SDS011;32305;46.410;17.394;2022-10-30T05:27:49;5.85;;;5.00;;
43560;SDS011;32305;46.410;17.394;2022-10-30T05:30:16;5.32;;;4.82;;
43560;SDS011;32305;46.410;17.394;2022-10-30T05:32:43;6.75;;;5.30;;
43560;SDS011;32305;46.410;17.394;2022-10-30T05:35:10;5.40;;;4.78;;
43560;SDS011;32305;46.410;17.394;2022-10-30T05:37:37;5.07;;;4.57;;
43560;SDS011;32305;46.410;17.394;2022-10-30T05:40:05;5.25;;;4.75;;
43560;SDS011;32305;46.410;17.394;2022-10-30T05:42:32;6.63;;;5.72;;
43560;SDS011;32305;46.410;17.394;2022-10-30T05:44:59;6.05;;;5.45;;
43560;SDS011;32305;46.410;17.394;2022-10-30T05:47:27;6.93;;;4.97;;
43560;SDS011;32305;46.410;17.394;2022-10-30T05:49:54;5.68;;;5.07;;
43560;SDS011;32305;46.410;17.394;2022-10-30T05:52:21;4.88;;;4.47;;
43560;SDS011;32305;46.410;17.394;2022-10-30T05:54:48;6.05;;;5.25;;
43560;SDS011;32305;46.410;17.394;2022-10-30T05:57:15;5.18;;;4.68;;
43560;SDS011;32305;46.410;17.394;2022-10-30T05:59:42;5.30;;;4.80;;
43560;SDS011;32305;46.410;17.394;2022-10-30T06:02:09;4.90;;;4.50;;
43560;SDS011;32305;46.410;17.394;2022-10-30T06:04:37;5.70;;;5.07;;
43560;SDS011;32305;46.410;17.394;2022-10-30T06:07:04;6.22;;;5.18;;
43560;SDS011;32305;46.410;17.394;2022-10-30T06:09:31;5.40;;;4.90;;
43560;SDS011;32305;46.410;17.394;2022-10-30T06:11:58;4.80;;;4.30;;
43560;SDS011;32305;46.410;17.394;2022-10-30T06:14:25;5.28;;;4.78;;
43560;SDS011;32305;46.410;17.394;2022-10-30T06:16:52;5.53;;;5.03;;
43560;SDS011;32305;46.410;17.394;2022-10-30T06:19:19;9.77;;;5.93;;
43560;SDS011;32305;46.410;17.394;2022-10-30T06:21:46;5.05;;;4.55;;
43560;SDS011;32305;46.410;17.394;2022-10-30T06:24:13;5.47;;;4.95;;
43560;SDS011;32305;46.410;17.394;2022-10-30T06:26:40;4.88;;;4.38;;
43560;SDS011;32305;46.410;17.394;2022-10-30T06:29:07;5.10;;;4.60;;
43560;SDS011;32305;46.410;17.394;2022-10-30T06:31:34;5.00;;;4.60;;
43560;SDS011;32305;46.410;17.394;2022-10-30T06:34:01;5.00;;;4.57;;
43560;SDS011;32305;46.410;17.394;2022-10-30T06:36:28;4.75;;;4.25;;
43560;SDS011;32305;46.410;17.394;2022-10-30T06:38:55;5.30;;;4.72;;
43560;SDS011;32305;46.410;17.394;2022-10-30T06:41:23;5.25;;;4.68;;
43560;SDS011;32305;46.410;17.394;2022-10-30T06:43:55;4.97;;;4.57;;
43560;SDS011;32305;46.410;17.394;2022-10-30T06:46:22;4.63;;;4.22;;
43560;SDS011;32305;46.410;17.394;2022-10-30T06:48:56;5.15;;;4.65;;
43560;SDS011;32305;46.410;17.394;2022-10-30T06:51:23;5.38;;;4.85;;
43560;SDS011;32305;46.410;17.394;2022-10-30T06:53:50;5.18;;;4.68;;
43560;SDS011;32305;46.410;17.394;2022-10-30T06:56:17;5.13;;;4.63;;
43560;SDS011;32305;46.410;17.394;2022-10-30T06:58:44;4.78;;;4.28;;
43560;SDS011;32305;46.410;17.394;2022-10-30T07:01:11;4.90;;;4.40;;
43560;SDS011;32305;46.410;17.394;2022-10-30T07:03:38;4.68;;;4.28;;
43560;SDS011;32305;46.410;17.394;2022-10-30T07:06:05;4.60;;;4.20;;
43560;SDS011;32305;46.410;17.394;2022-10-30T07:08:33;4.72;;;4.32;;
43560;SDS011;32305;46.410;17.394;2022-10-30T07:11:00;4.57;;;4.18;;
43560;SDS011;32305;46.410;17.394;2022-10-30T07:13:27;4.20;;;3.90;;
43560;SDS011;32305;46.410;17.394;2022-10-30T07:15:53;5.05;;;4.63;;
43560;SDS011;32305;46.410;17.394;2022-10-30T07:18:21;4.95;;;4.45;;
43560;SDS011;32305;46.410;17.394;2022-10-30T07:20:52;4.53;;;4.13;;
43560;SDS011;32305;46.410;17.394;2022-10-30T07:23:21;4.90;;;4.50;;
43560;SDS011;32305;46.410;17.394;2022-10-30T07:25:49;4.65;;;4.25;;
43560;SDS011;32305;46.410;17.394;2022-10-30T07:28:16;5.05;;;4.60;;
43560;SDS011;32305;46.410;17.394;2022-10-30T07:30:43;4.75;;;4.35;;
43560;SDS011;32305;46.410;17.394;2022-10-30T07:33:10;4.72;;;4.30;;
43560;SDS011;32305;46.410;17.394;2022-10-30T07:35:37;4.82;;;4.43;;
43560;SDS011;32305;46.410;17.394;2022-10-30T07:38:05;5.53;;;4.90;;
43560;SDS011;32305;46.410;17.394;2022-10-30T07:40:36;5.05;;;4.55;;
43560;SDS011;32305;46.410;17.394;2022-10-30T07:43:04;4.05;;;3.75;;
43560;SDS011;32305;46.410;17.394;2022-10-30T07:45:31;4.68;;;4.20;;
43560;SDS011;32305;46.410;17.394;2022-10-30T07:47:58;4.70;;;4.30;;
43560;SDS011;32305;46.410;17.394;2022-10-30T07:50:26;4.20;;;3.80;;
43560;SDS011;32305;46.410;17.394;2022-10-30T07:52:54;4.68;;;4.28;;
43560;SDS011;32305;46.410;17.394;2022-10-30T07:55:21;4.20;;;3.90;;
43560;SDS011;32305;46.410;17.394;2022-10-30T07:57:48;4.25;;;3.95;;
43560;SDS011;32305;46.410;17.394;2022-10-30T08:00:16;4.50;;;4.10;;
43560;SDS011;32305;46.410;17.394;2022-10-30T08:02:43;4.38;;;3.97;;
43560;SDS011;32305;46.410;17.394;2022-10-30T08:05:16;3.72;;;3.42;;
43560;SDS011;32305;46.410;17.394;2022-10-30T08:07:44;5.45;;;4.88;;
43560;SDS011;32305;46.410;17.394;2022-10-30T08:10:12;4.85;;;4.45;;
43560;SDS011;32305;46.410;17.394;2022-10-30T08:12:39;5.10;;;4.60;;
43560;SDS011;32305;46.410;17.394;2022-10-30T08:15:09;3.88;;;3.58;;
43560;SDS011;32305;46.410;17.394;2022-10-30T08:17:40;4.60;;;4.20;;
43560;SDS011;32305;46.410;17.394;2022-10-30T08:20:09;4.65;;;4.25;;
43560;SDS011;32305;46.410;17.394;2022-10-30T08:22:45;4.45;;;4.05;;
43560;SDS011;32305;46.410;17.394;2022-10-30T08:25:17;4.60;;;4.20;;
43560;SDS011;32305;46.410;17.394;2022-10-30T08:27:56;4.57;;;4.18;;
43560;SDS011;32305;46.410;17.394;2022-10-30T08:30:28;4.15;;;3.85;;
43560;SDS011;32305;46.410;17.394;2022-10-30T08:33:00;4.70;;;4.30;;
43560;SDS011;32305;46.410;17.394;2022-10-30T08:35:28;4.45;;;4.15;;
43560;SDS011;32305;46.410;17.394;2022-10-30T08:37:56;4.93;;;4.43;;
43560;SDS011;32305;46.410;17.394;2022-10-30T08:40:24;4.60;;;4.20;;
43560;SDS011;32305;46.410;17.394;2022-10-30T08:42:53;4.30;;;3.90;;
43560;SDS011;32305;46.410;17.394;2022-10-30T08:45:21;4.82;;;4.35;;
43560;SDS011;32305;46.410;17.394;2022-10-30T08:48:00;4.53;;;4.13;;
43560;SDS011;32305;46.410;17.394;2022-10-30T08:50:31;4.88;;;4.30;;
43560;SDS011;32305;46.410;17.394;2022-10-30T08:53:01;5.20;;;4.70;;
43560;SDS011;32305;46.410;17.394;2022-10-30T08:55:30;5.13;;;4.70;;
43560;SDS011;32305;46.410;17.394;2022-10-30T08:57:58;4.53;;;4.13;;
43560;SDS011;32305;46.410;17.394;2022-10-30T09:00:26;4.35;;;4.05;;
43560;SDS011;32305;46.410;17.394;2022-10-30T09:02:54;4.93;;;4.53;;
43560;SDS011;32305;46.410;17.394;2022-10-30T09:05:22;6.53;;;5.03;;
43560;SDS011;32305;46.410;17.394;2022-10-30T09:07:49;4.97;;;4.57;;
43560;SDS011;32305;46.410;17.394;2022-10-30T09:10:23;5.22;;;4.72;;
43560;SDS011;32305;46.410;17.394;2022-10-30T09:12:54;5.55;;;5.05;;
43560;SDS011;32305;46.410;17.394;2022-10-30T09:15:22;4.93;;;4.43;;
43560;SDS011;32305;46.410;17.394;2022-10-30T09:17:53;6.70;;;5.38;;
43560;SDS011;32305;46.410;17.394;2022-10-30T09:20:23;5.47;;;4.97;;
43560;SDS011;32305;46.410;17.394;2022-10-30T09:22:51;5.90;;;5.30;;
43560;SDS011;32305;46.410;17.394;2022-10-30T09:25:18;5.57;;;5.00;;
43560;SDS011;32305;46.410;17.394;2022-10-30T09:27:45;6.20;;;5.32;;
43560;SDS011;32305;46.410;17.394;2022-10-30T09:30:12;5.97;;;5.38;;
43560;SDS011;32305;46.410;17.394;2022-10-30T09:32:40;6.18;;;5.53;;
43560;SDS011;32305;46.410;17.394;2022-10-30T09:35:07;4.82;;;4.32;;
43560;SDS011;32305;46.410;17.394;2022-10-30T09:37:35;6.30;;;5.43;;
43560;SDS011;32305;46.410;17.394;2022-10-30T09:40:03;5.35;;;4.85;;
43560;SDS011;32305;46.410;17.394;2022-10-30T09:42:42;6.43;;;5.72;;
43560;SDS011;32305;46.410;17.394;2022-10-30T09:45:32;6.10;;;5.47;;
43560;SDS011;32305;46.410;17.394;2022-10-30T09:48:33;6.00;;;5.30;;
43560;SDS011;32305;46.410;17.394;2022-10-30T09:54:22;6.37;;;5.77;;
43560;SDS011;32305;46.410;17.394;2022-10-30T09:57:06;5.55;;;5.05;;
43560;SDS011;32305;46.410;17.394;2022-10-30T10:00:06;6.43;;;5.82;;
43560;SDS011;32305;46.410;17.394;2022-10-30T10:02:57;6.10;;;5.50;;
43560;SDS011;32305;46.410;17.394;2022-10-30T10:05:43;6.07;;;5.47;;
43560;SDS011;32305;46.410;17.394;2022-10-30T10:11:17;5.70;;;5.20;;
43560;SDS011;32305;46.410;17.394;2022-10-30T10:14:00;6.07;;;5.47;;
43560;SDS011;32305;46.410;17.394;2022-10-30T10:16:35;7.32;;;6.55;;
43560;SDS011;32305;46.410;17.394;2022-10-30T10:19:19;7.80;;;5.15;;
43560;SDS011;32305;46.410;17.394;2022-10-30T10:21:59;5.95;;;5.25;;
43560;SDS011;32305;46.410;17.394;2022-10-30T10:24:29;6.60;;;5.53;;
43560;SDS011;32305;46.410;17.394;2022-10-30T10:30:14;6.18;;;5.55;;
43560;SDS011;32305;46.410;17.394;2022-10-30T10:33:06;6.00;;;5.50;;
43560;SDS011;32305;46.410;17.394;2022-10-30T10:36:04;5.43;;;4.93;;
43560;SDS011;32305;46.410;17.394;2022-10-30T10:39:12;6.90;;;6.20;;
43560;SDS011;32305;46.410;17.394;2022-10-30T10:41:52;5.82;;;5.32;;
43560;SDS011;32305;46.410;17.394;2022-10-30T10:44:38;6.00;;;5.40;;
43560;SDS011;32305;46.410;17.394;2022-10-30T10:50:34;6.55;;;5.93;;
43560;SDS011;32305;46.410;17.394;2022-10-30T10:53:10;6.18;;;5.57;;
43560;SDS011;32305;46.410;17.394;2022-10-30T10:55:49;6.50;;;5.78;;
43560;SDS011;32305;46.410;17.394;2022-10-30T11:01:18;6.05;;;5.45;;
43560;SDS011;32305;46.410;17.394;2022-10-30T11:03:51;6.75;;;6.00;;
43560;SDS011;32305;46.410;17.394;2022-10-30T11:06:24;6.13;;;5.50;;
43560;SDS011;32305;46.410;17.394;2022-10-30T11:09:01;6.15;;;5.50;;
43560;SDS011;32305;46.410;17.394;2022-10-30T11:11:45;6.65;;;5.60;;
43560;SDS011;32305;46.410;17.394;2022-10-30T11:14:18;6.00;;;5.40;;
43560;SDS011;32305;46.410;17.394;2022-10-30T11:16:53;5.72;;;5.13;;
43560;SDS011;32305;46.410;17.394;2022-10-30T11:19:44;5.72;;;5.13;;
43560;SDS011;32305;46.410;17.394;2022-10-30T11:22:30;6.32;;;5.20;;
43560;SDS011;32305;46.410;17.394;2022-10-30T11:25:19;6.28;;;5.68;;
43560;SDS011;32305;46.410;17.394;2022-10-30T11:27:55;5.97;;;5.38;;
43560;SDS011;32305;46.410;17.394;2022-10-30T11:30:24;6.28;;;5.50;;
43560;SDS011;32305;46.410;17.394;2022-10-30T11:32:54;6.88;;;6.20;;
43560;SDS011;32305;46.410;17.394;2022-10-30T11:35:22;5.95;;;5.45;;
43560;SDS011;32305;46.410;17.394;2022-10-30T11:37:51;5.65;;;5.15;;
43560;SDS011;32305;46.410;17.394;2022-10-30T11:40:39;6.10;;;5.50;;
43560;SDS011;32305;46.410;17.394;2022-10-30T11:43:14;6.18;;;5.57;;
43560;SDS011;32305;46.410;17.394;2022-10-30T11:45:45;5.88;;;5.28;;
43560;SDS011;32305;46.410;17.394;2022-10-30T11:48:19;8.52;;;5.88;;
43560;SDS011;32305;46.410;17.394;2022-10-30T11:50:59;8.13;;;6.07;;
43560;SDS011;32305;46.410;17.394;2022-10-30T11:53:29;6.25;;;5.65;;
43560;SDS011;32305;46.410;17.394;2022-10-30T11:56:20;5.97;;;5.38;;
43560;SDS011;32305;46.410;17.394;2022-10-30T11:58:49;6.53;;;5.80;;
43560;SDS011;32305;46.410;17.394;2022-10-30T12:01:23;6.75;;;5.70;;
43560;SDS011;32305;46.410;17.394;2022-10-30T12:03:52;6.30;;;5.68;;
43560;SDS011;32305;46.410;17.394;2022-10-30T12:06:26;6.15;;;5.25;;
43560;SDS011;32305;46.410;17.394;2022-10-30T12:11:46;6.22;;;5.68;;
43560;SDS011;32305;46.410;17.394;2022-10-30T12:14:21;6.70;;;5.88;;
43560;SDS011;32305;46.410;17.394;2022-10-30T12:16:51;7.18;;;6.13;;
43560;SDS011;32305;46.410;17.394;2022-10-30T12:19:23;6.32;;;5.72;;
43560;SDS011;32305;46.410;17.394;2022-10-30T12:21:51;6.55;;;5.85;;
43560;SDS011;32305;46.410;17.394;2022-10-30T12:24:28;6.95;;;6.20;;
43560;SDS011;32305;46.410;17.394;2022-10-30T12:26:59;7.72;;;6.68;;
43560;SDS011;32305;46.410;17.394;2022-10-30T12:29:48;6.97;;;6.28;;
43560;SDS011;32305;46.410;17.394;2022-10-30T12:32:39;7.55;;;5.80;;
43560;SDS011;32305;46.410;17.394;2022-10-30T12:38:16;7.30;;;6.30;;
43560;SDS011;32305;46.410;17.394;2022-10-30T12:41:01;8.75;;;6.63;;
43560;SDS011;32305;46.410;17.394;2022-10-30T12:43:43;6.80;;;5.70;;
43560;SDS011;32305;46.410;17.394;2022-10-30T12:46:32;7.18;;;5.80;;
43560;SDS011;32305;46.410;17.394;2022-10-30T12:49:10;7.60;;;6.82;;
43560;SDS011;32305;46.410;17.394;2022-10-30T12:51:51;6.18;;;5.43;;
43560;SDS011;32305;46.410;17.394;2022-10-30T12:57:22;6.68;;;5.82;;
43560;SDS011;32305;46.410;17.394;2022-10-30T12:59:58;6.72;;;5.95;;
43560;SDS011;32305;46.410;17.394;2022-10-30T13:02:49;7.22;;;6.00;;
43560;SDS011;32305;46.410;17.394;2022-10-30T13:05:27;6.95;;;6.25;;
43560;SDS011;32305;46.410;17.394;2022-10-30T13:08:31;7.03;;;6.03;;
43560;SDS011;32305;46.410;17.394;2022-10-30T13:11:11;6.82;;;6.07;;
43560;SDS011;32305;46.410;17.394;2022-10-30T13:13:54;6.93;;;5.95;;
43560;SDS011;32305;46.410;17.394;2022-10-30T13:16:27;6.65;;;6.00;;
43560;SDS011;32305;46.410;17.394;2022-10-30T13:18:56;7.28;;;6.57;;
43560;SDS011;32305;46.410;17.394;2022-10-30T13:21:29;8.65;;;7.72;;
43560;SDS011;32305;46.410;17.394;2022-10-30T13:24:09;7.30;;;6.32;;
43560;SDS011;32305;46.410;17.394;2022-10-30T13:26:48;7.43;;;6.63;;
43560;SDS011;32305;46.410;17.394;2022-10-30T13:29:27;6.70;;;6.10;;
43560;SDS011;32305;46.410;17.394;2022-10-30T13:32:05;7.85;;;6.95;;
43560;SDS011;32305;46.410;17.394;2022-10-30T13:35:02;7.40;;;6.40;;
43560;SDS011;32305;46.410;17.394;2022-10-30T13:50:10;8.32;;;7.05;;
43560;SDS011;32305;46.410;17.394;2022-10-30T13:52:53;6.88;;;6.22;;
43560;SDS011;32305;46.410;17.394;2022-10-30T13:55:27;8.40;;;6.60;;
43560;SDS011;32305;46.410;17.394;2022-10-30T13:58:00;9.32;;;6.35;;
43560;SDS011;32305;46.410;17.394;2022-10-30T14:00:50;6.82;;;6.13;;
43560;SDS011;32305;46.410;17.394;2022-10-30T14:03:27;7.03;;;6.40;;
43560;SDS011;32305;46.410;17.394;2022-10-30T14:06:08;9.55;;;7.15;;
43560;SDS011;32305;46.410;17.394;2022-10-30T14:09:07;8.23;;;6.72;;
43560;SDS011;32305;46.410;17.394;2022-10-30T14:11:55;7.25;;;6.38;;
43560;SDS011;32305;46.410;17.394;2022-10-30T14:17:14;8.05;;;6.80;;
43560;SDS011;32305;46.410;17.394;2022-10-30T14:25:40;8.13;;;7.30;;
43560;SDS011;32305;46.410;17.394;2022-10-30T14:28:18;8.30;;;7.00;;
43560;SDS011;32305;46.410;17.394;2022-10-30T14:30:46;8.27;;;7.35;;
43560;SDS011;32305;46.410;17.394;2022-10-30T14:33:43;8.53;;;6.80;;
43560;SDS011;32305;46.410;17.394;2022-10-30T14:36:20;9.32;;;7.32;;
43560;SDS011;32305;46.410;17.394;2022-10-30T14:38:53;9.25;;;7.35;;
43560;SDS011;32305;46.410;17.394;2022-10-30T14:44:38;10.18;;;7.47;;
43560;SDS011;32305;46.410;17.394;2022-10-30T14:47:42;8.82;;;7.30;;
43560;SDS011;32305;46.410;17.394;2022-10-30T14:50:32;7.45;;;6.65;;
43560;SDS011;32305;46.410;17.394;2022-10-30T14:56:30;8.65;;;7.25;;
43560;SDS011;32305;46.410;17.394;2022-10-30T14:59:20;8.30;;;7.43;;
43560;SDS011;32305;46.410;17.394;2022-10-30T15:02:02;9.38;;;7.57;;
43560;SDS011;32305;46.410;17.394;2022-10-30T15:05:03;11.00;;;7.63;;
43560;SDS011;32305;46.410;17.394;2022-10-30T15:07:47;8.25;;;7.28;;
43560;SDS011;32305;46.410;17.394;2022-10-30T15:10:21;8.57;;;7.07;;
43560;SDS011;32305;46.410;17.394;2022-10-30T15:15:59;8.02;;;7.10;;
43560;SDS011;32305;46.410;17.394;2022-10-30T15:18:28;8.25;;;6.55;;
43560;SDS011;32305;46.410;17.394;2022-10-30T15:20:57;7.60;;;6.80;;
43560;SDS011;32305;46.410;17.394;2022-10-30T15:23:30;7.18;;;6.47;;
43560;SDS011;32305;46.410;17.394;2022-10-30T15:26:01;7.70;;;6.70;;
43560;SDS011;32305;46.410;17.394;2022-10-30T15:28:35;7.28;;;6.57;;
43560;SDS011;32305;46.410;17.394;2022-10-30T15:31:05;6.90;;;6.20;;
43560;SDS011;32305;46.410;17.394;2022-10-30T15:33:48;7.20;;;6.50;;
43560;SDS011;32305;46.410;17.394;2022-10-30T15:36:21;7.18;;;6.47;;
43560;SDS011;32305;46.410;17.394;2022-10-30T15:39:08;6.45;;;5.78;;
43560;SDS011;32305;46.410;17.394;2022-10-30T15:41:58;8.48;;;6.25;;
43560;SDS011;32305;46.410;17.394;2022-10-30T15:44:30;7.68;;;6.53;;
43560;SDS011;32305;46.410;17.394;2022-10-30T15:46:59;6.25;;;5.45;;
43560;SDS011;32305;46.410;17.394;2022-10-30T15:49:31;6.63;;;5.83;;
43560;SDS011;32305;46.410;17.394;2022-10-30T15:52:01;8.68;;;6.50;;
43560;SDS011;32305;46.410;17.394;2022-10-30T15:54:31;7.47;;;6.70;;
43560;SDS011;32305;46.410;17.394;2022-10-30T15:56:59;6.95;;;6.25;;
43560;SDS011;32305;46.410;17.394;2022-10-30T15:59:50;7.68;;;6.43;;
43560;SDS011;32305;46.410;17.394;2022-10-30T16:02:22;7.15;;;6.45;;
43560;SDS011;32305;46.410;17.394;2022-10-30T16:04:52;7.30;;;6.55;;
43560;SDS011;32305;46.410;17.394;2022-10-30T16:07:21;7.53;;;6.00;;
43560;SDS011;32305;46.410;17.394;2022-10-30T16:09:56;7.82;;;6.32;;